createdAt,value
2023-03-22T00:01:34.925Z,9.14
2023-03-22T00:04:01.816Z,9.13
2023-03-22T00:06:28.683Z,9.21
2023-03-22T00:08:55.567Z,9.21
2023-03-22T00:11:27.325Z,9.19
2023-03-22T00:13:55.100Z,9.22
2023-03-22T00:16:22.184Z,9.25
2023-03-22T00:18:49.039Z,9.22
2023-03-22T00:21:16.829Z,9.22
2023-03-22T00:23:44.804Z,9.21
2023-03-22T00:26:13.255Z,9.21
2023-03-22T00:28:40.996Z,9.23
2023-03-22T00:31:08.088Z,9.23
2023-03-22T00:33:35.838Z,9.17
2023-03-22T00:36:05.476Z,9.15
2023-03-22T00:38:44.836Z,9.11
2023-03-22T00:41:14.908Z,9.11
2023-03-22T00:43:45.325Z,9.09
2023-03-22T00:46:12.841Z,9.09
2023-03-22T00:48:40.014Z,9.07
2023-03-22T00:51:07.853Z,9.07
2023-03-22T00:53:37.088Z,9.04
2023-03-22T00:56:07.750Z,9.06
2023-03-22T00:58:45.298Z,9.03
2023-03-22T01:01:14.287Z,9.03
2023-03-22T01:03:45.917Z,8.99
2023-03-22T01:06:15.592Z,8.96
2023-03-22T01:08:42.524Z,8.93
2023-03-22T01:11:09.641Z,8.91
2023-03-22T01:13:41.967Z,8.89
2023-03-22T01:16:10.228Z,8.87
2023-03-22T01:18:37.185Z,8.89
2023-03-22T01:21:04.259Z,8.90
2023-03-22T01:23:32.022Z,8.92
2023-03-22T01:26:01.061Z,8.92
2023-03-22T01:28:28.776Z,8.93
2023-03-22T01:30:56.202Z,8.89
2023-03-22T01:33:23.154Z,8.94
2023-03-22T01:35:51.226Z,8.92
2023-03-22T01:41:07.616Z,8.90
2023-03-22T01:43:38.174Z,8.88
2023-03-22T01:46:05.313Z,8.90
2023-03-22T01:48:50.345Z,8.85
2023-03-22T01:51:20.880Z,8.86
2023-03-22T01:54:21.015Z,8.84
2023-03-22T01:56:48.986Z,8.84
2023-03-22T01:59:24.340Z,8.82
2023-03-22T02:02:15.104Z,8.81
2023-03-22T02:04:42.159Z,8.80
2023-03-22T02:07:15.746Z,8.84
2023-03-22T02:09:46.683Z,8.82
2023-03-22T02:12:39.595Z,8.81
2023-03-22T02:15:48.964Z,8.79
2023-03-22T02:19:19.623Z,8.75
2023-03-22T02:22:01.346Z,8.73
2023-03-22T02:25:18.705Z,8.72
2023-03-22T02:27:54.016Z,8.72
2023-03-22T02:30:48.514Z,8.72
2023-03-22T02:33:50.482Z,8.68
2023-03-22T02:36:33.132Z,8.66
2023-03-22T02:39:17.269Z,8.67
2023-03-22T02:42:05.464Z,8.65
2023-03-22T02:44:45.424Z,8.64
2023-03-22T02:47:20.682Z,8.68
2023-03-22T02:49:55.900Z,8.64
2023-03-22T02:52:43.235Z,8.62
2023-03-22T02:55:15.817Z,8.59
2023-03-22T02:57:54.397Z,8.64
2023-03-22T03:00:21.482Z,8.58
2023-03-22T03:02:57.605Z,8.64
2023-03-22T03:05:25.361Z,8.60
2023-03-22T03:07:57.736Z,8.64
2023-03-22T03:10:26.065Z,8.60
2023-03-22T03:12:53.309Z,8.61
2023-03-22T03:15:21.672Z,8.58
2023-03-22T03:18:06.416Z,8.58
2023-03-22T03:20:39.961Z,8.55
2023-03-22T03:23:31.401Z,8.54
2023-03-22T03:26:14.592Z,8.60
2023-03-22T03:29:05.775Z,8.63
2023-03-22T03:31:50.918Z,8.68
2023-03-22T03:34:33.029Z,8.61
2023-03-22T03:37:08.408Z,8.49
2023-03-22T03:39:39.524Z,8.47
2023-03-22T03:42:07.585Z,8.43
2023-03-22T03:44:36.149Z,8.47
2023-03-22T03:47:05.704Z,8.46
2023-03-22T03:49:32.528Z,8.46
2023-03-22T03:51:59.920Z,8.44
2023-03-22T03:54:26.826Z,8.43
2023-03-22T03:56:55.913Z,8.45
2023-03-22T03:59:23.288Z,8.47
2023-03-22T04:01:52.952Z,8.46
2023-03-22T04:04:29.634Z,8.47
2023-03-22T04:07:03.715Z,8.46
2023-03-22T04:09:34.027Z,8.47
2023-03-22T04:12:10.117Z,8.43
2023-03-22T04:14:36.931Z,8.45
2023-03-22T04:17:10.740Z,8.45
2023-03-22T04:19:37.501Z,8.49
2023-03-22T04:22:23.909Z,8.46
2023-03-22T04:24:50.850Z,8.52
2023-03-22T04:27:22.115Z,8.48
2023-03-22T04:30:12.500Z,8.49
2023-03-22T04:32:58.116Z,8.46
2023-03-22T04:35:38.107Z,8.47
2023-03-22T04:38:05.079Z,8.46
2023-03-22T04:40:36.697Z,8.48
2023-03-22T04:43:18.985Z,8.46
2023-03-22T04:45:54.800Z,8.55
2023-03-22T04:48:28.071Z,8.60
2023-03-22T04:50:56.475Z,8.65
2023-03-22T04:53:27.662Z,8.68
2023-03-22T04:55:59.049Z,8.73
2023-03-22T04:58:27.635Z,8.76
2023-03-22T05:00:54.367Z,8.78
2023-03-22T05:03:22.454Z,8.75
2023-03-22T05:05:58.857Z,8.76
2023-03-22T05:08:34.363Z,8.78
2023-03-22T05:11:08.631Z,8.80
2023-03-22T05:13:37.592Z,8.81
2023-03-22T05:16:05.805Z,8.75
2023-03-22T05:18:45.675Z,8.69
2023-03-22T05:21:15.610Z,8.75
2023-03-22T05:23:43.711Z,8.78
2023-03-22T05:26:16.174Z,8.80
2023-03-22T05:28:44.172Z,8.78
2023-03-22T05:31:18.181Z,8.81
2023-03-22T05:33:54.566Z,8.85
2023-03-22T05:36:24.294Z,8.83
2023-03-22T05:39:16.140Z,8.77
2023-03-22T05:41:44.373Z,8.72
2023-03-22T05:44:11.301Z,8.72
2023-03-22T05:46:43.482Z,8.71
2023-03-22T05:49:36.552Z,8.70
2023-03-22T05:52:04.535Z,8.72
2023-03-22T05:54:45.709Z,8.75
2023-03-22T05:57:12.380Z,8.72
2023-03-22T05:59:39.489Z,8.76
2023-03-22T06:02:09.011Z,8.73
2023-03-22T06:04:35.883Z,8.73
2023-03-22T06:07:09.000Z,8.68
2023-03-22T06:09:45.646Z,8.65
2023-03-22T06:12:17.379Z,8.62
2023-03-22T06:14:49.077Z,8.58
2023-03-22T06:17:26.619Z,8.57
2023-03-22T06:19:54.969Z,8.55
2023-03-22T06:22:22.130Z,8.62
2023-03-22T06:24:49.420Z,8.67
2023-03-22T06:27:22.172Z,8.66
2023-03-22T06:29:51.040Z,8.64
2023-03-22T06:32:26.742Z,8.67
2023-03-22T06:34:54.842Z,8.68
2023-03-22T06:37:23.696Z,8.67
2023-03-22T06:39:51.949Z,8.70
2023-03-22T06:42:20.453Z,8.79
2023-03-22T06:44:54.771Z,8.83
2023-03-22T06:47:26.530Z,8.88
2023-03-22T06:50:26.114Z,8.84
2023-03-22T06:53:15.911Z,8.85
2023-03-22T06:55:43.480Z,8.83
2023-03-22T06:58:13.986Z,8.83
2023-03-22T07:00:41.697Z,8.87
2023-03-22T07:03:08.828Z,8.86
2023-03-22T07:06:00.899Z,8.85
2023-03-22T07:08:30.651Z,8.97
2023-03-22T07:10:57.927Z,8.92
2023-03-22T07:13:24.874Z,8.90
2023-03-22T07:15:59.519Z,8.94
2023-03-22T07:18:36.013Z,8.93
2023-03-22T07:21:03.024Z,8.97
2023-03-22T07:23:30.178Z,8.97
2023-03-22T07:26:03.103Z,9.02
2023-03-22T07:28:35.855Z,9.02
2023-03-22T07:31:05.092Z,8.97
2023-03-22T07:33:42.001Z,9.05
2023-03-22T07:36:10.428Z,9.10
2023-03-22T07:38:37.630Z,9.11
2023-03-22T07:41:08.810Z,9.11
2023-03-22T07:43:58.261Z,9.18
2023-03-22T07:46:29.799Z,9.21
2023-03-22T07:49:18.042Z,9.27
2023-03-22T07:52:02.904Z,9.29
2023-03-22T07:54:33.946Z,9.31
2023-03-22T07:57:01.871Z,9.37
2023-03-22T07:59:28.900Z,9.40
2023-03-22T08:01:55.782Z,9.41
2023-03-22T08:04:30.902Z,9.47
2023-03-22T08:07:05.966Z,9.51
2023-03-22T08:09:33.423Z,9.54
2023-03-22T08:12:01.032Z,9.58
2023-03-22T08:14:36.245Z,9.63
2023-03-22T08:17:06.193Z,9.72
2023-03-22T08:19:34.513Z,9.74
2023-03-22T08:22:02.204Z,9.80
2023-03-22T08:24:47.898Z,9.88
2023-03-22T08:27:25.015Z,9.93
2023-03-22T08:29:51.935Z,9.96
2023-03-22T08:32:19.200Z,9.99
2023-03-22T08:34:46.040Z,10.05
2023-03-22T08:37:16.231Z,10.02
2023-03-22T08:39:44.953Z,10.15
2023-03-22T08:42:27.829Z,10.22
2023-03-22T08:44:54.773Z,10.28
2023-03-22T08:47:24.404Z,10.28
2023-03-22T08:49:55.248Z,10.35
2023-03-22T08:52:28.688Z,10.42
2023-03-22T08:55:06.429Z,10.44
2023-03-22T08:57:39.174Z,10.47
2023-03-22T09:00:42.255Z,10.77
2023-03-22T09:03:20.781Z,10.74
2023-03-22T09:05:48.827Z,10.77
2023-03-22T09:08:19.808Z,10.78
2023-03-22T09:10:53.829Z,10.71
2023-03-22T09:13:22.435Z,10.76
2023-03-22T09:16:07.042Z,10.80
2023-03-22T09:18:40.274Z,10.83
2023-03-22T09:21:14.489Z,10.82
2023-03-22T09:23:50.522Z,10.88
2023-03-22T09:26:20.326Z,10.86
2023-03-22T09:28:52.776Z,11.16
2023-03-22T09:31:20.699Z,11.13
2023-03-22T09:33:51.823Z,11.21
2023-03-22T09:36:19.966Z,11.21
2023-03-22T09:38:48.198Z,11.20
2023-03-22T09:41:19.379Z,11.23
2023-03-22T09:43:49.956Z,11.24
2023-03-22T09:46:37.134Z,11.28
2023-03-22T09:49:07.516Z,11.41
2023-03-22T09:51:42.881Z,11.51
2023-03-22T09:54:15.081Z,11.55
2023-03-22T09:56:46.439Z,11.62
2023-03-22T09:59:27.263Z,11.71
2023-03-22T10:01:57.407Z,11.65
2023-03-22T10:04:49.546Z,11.70
2023-03-22T10:07:28.349Z,11.69
2023-03-22T10:10:10.276Z,11.78
2023-03-22T10:13:02.139Z,11.77
2023-03-22T10:15:38.889Z,11.77
2023-03-22T10:18:09.228Z,11.75
2023-03-22T10:20:44.538Z,11.81
2023-03-22T10:23:37.587Z,11.88
2023-03-22T10:26:05.311Z,11.85
2023-03-22T10:28:37.954Z,11.83
2023-03-22T10:31:05.997Z,11.86
2023-03-22T10:33:50.184Z,11.91
2023-03-22T10:36:19.246Z,11.93
2023-03-22T10:38:48.842Z,11.97
2023-03-22T10:41:20.290Z,11.98
2023-03-22T10:43:51.959Z,11.99
2023-03-22T10:46:27.062Z,12.01
2023-03-22T10:48:58.319Z,12.18
2023-03-22T10:51:32.752Z,12.19
2023-03-22T10:54:01.642Z,12.42
2023-03-22T10:56:28.489Z,12.49
2023-03-22T10:58:56.198Z,12.57
2023-03-22T11:01:36.910Z,12.82
2023-03-22T11:04:03.617Z,12.84
2023-03-22T11:06:34.916Z,13.10
2023-03-22T11:09:14.484Z,12.92
2023-03-22T11:11:54.754Z,12.87
2023-03-22T11:14:32.785Z,12.82
2023-03-22T11:17:01.679Z,12.88
2023-03-22T11:19:39.215Z,12.80
2023-03-22T11:22:23.004Z,12.82
2023-03-22T11:24:51.188Z,12.80
2023-03-22T11:27:31.766Z,12.79
2023-03-22T11:30:08.866Z,12.82
2023-03-22T11:32:38.803Z,13.00
2023-03-22T11:35:13.107Z,13.04
2023-03-22T11:37:54.112Z,13.02
2023-03-22T11:40:23.032Z,13.11
2023-03-22T11:42:54.026Z,13.19
2023-03-22T11:45:32.742Z,13.08
2023-03-22T11:48:08.315Z,13.05
2023-03-22T11:50:38.791Z,13.21
2023-03-22T11:53:08.957Z,13.47
2023-03-22T11:55:36.459Z,13.42
2023-03-22T11:58:04.683Z,13.70
2023-03-22T12:00:33.926Z,13.90
2023-03-22T12:03:05.101Z,13.56
2023-03-22T12:05:33.962Z,13.39
2023-03-22T12:08:04.852Z,13.30
2023-03-22T12:10:36.819Z,13.30
2023-03-22T12:13:07.853Z,13.42
2023-03-22T12:15:37.395Z,13.42
2023-03-22T12:18:13.825Z,13.53
2023-03-22T12:20:45.040Z,13.78
2023-03-22T12:23:15.568Z,13.80
2023-03-22T12:25:46.890Z,13.87
2023-03-22T12:28:17.729Z,13.89
2023-03-22T12:30:47.543Z,14.05
2023-03-22T12:33:33.300Z,14.09
2023-03-22T12:36:05.521Z,14.24
2023-03-22T12:38:40.732Z,14.32
2023-03-22T12:41:11.732Z,14.37
2023-03-22T12:43:53.706Z,14.45
2023-03-22T12:46:35.718Z,14.62
2023-03-22T12:49:32.573Z,14.59
2023-03-22T12:52:16.183Z,14.55
2023-03-22T12:54:43.459Z,14.51
2023-03-22T12:57:14.291Z,14.64
2023-03-22T12:59:42.903Z,14.89
2023-03-22T13:02:17.260Z,14.90
2023-03-22T13:04:43.835Z,15.16
2023-03-22T13:07:13.738Z,15.00
2023-03-22T13:09:53.621Z,15.17
2023-03-22T13:12:20.534Z,15.10
2023-03-22T13:14:50.486Z,15.11
2023-03-22T13:17:23.291Z,15.03
2023-03-22T13:20:11.805Z,14.88
2023-03-22T13:22:40.801Z,14.96
2023-03-22T13:25:13.745Z,14.94
2023-03-22T13:27:46.459Z,14.92
2023-03-22T13:30:17.026Z,14.76
2023-03-22T13:33:16.614Z,14.86
2023-03-22T13:35:48.761Z,14.80
2023-03-22T13:38:31.406Z,14.90
2023-03-22T13:41:09.656Z,14.93
2023-03-22T13:43:50.781Z,15.00
2023-03-22T13:46:23.580Z,15.16
2023-03-22T13:48:53.333Z,15.34
2023-03-22T13:51:23.041Z,15.35
2023-03-22T13:54:02.076Z,15.31
2023-03-22T13:56:42.430Z,15.71
2023-03-22T13:59:43.113Z,15.65
2023-03-22T14:02:22.420Z,15.33
2023-03-22T14:04:53.284Z,15.42
2023-03-22T14:07:30.436Z,15.17
2023-03-22T14:10:03.509Z,15.21
2023-03-22T14:12:48.278Z,15.18
2023-03-22T14:15:18.383Z,15.05
2023-03-22T14:17:52.873Z,14.95
2023-03-22T14:20:22.532Z,14.97
2023-03-22T14:54:06.185Z,15.64
2023-03-22T14:56:34.740Z,15.62
2023-03-22T14:59:03.648Z,15.52
2023-03-22T15:01:35.021Z,15.65
2023-03-22T15:04:05.882Z,15.67
2023-03-22T15:06:55.688Z,15.78
2023-03-22T15:09:37.976Z,15.78
2023-03-22T15:12:26.311Z,15.81
2023-03-22T15:14:56.141Z,15.88
2023-03-22T15:17:33.681Z,15.89
2023-03-22T15:20:28.588Z,15.66
2023-03-22T15:23:18.451Z,15.46
2023-03-22T15:26:07.486Z,15.32
2023-03-22T15:28:44.314Z,15.20
2023-03-22T15:31:25.454Z,15.17
2023-03-22T15:33:54.138Z,15.22
2023-03-22T15:36:22.315Z,15.17
2023-03-22T15:38:49.710Z,15.12
2023-03-22T15:41:24.083Z,15.15
2023-03-22T15:44:23.247Z,15.22
2023-03-22T15:46:53.259Z,15.24
2023-03-22T15:49:36.635Z,15.06
2023-03-22T15:52:09.758Z,14.93
2023-03-22T15:54:41.892Z,14.77
2023-03-22T15:57:16.203Z,14.74
2023-03-22T15:59:52.390Z,14.70
2023-03-22T16:02:31.674Z,14.58
2023-03-22T16:05:03.335Z,14.49
2023-03-22T16:07:30.907Z,14.49
2023-03-22T16:09:58.838Z,14.42
2023-03-22T16:12:26.146Z,14.42
2023-03-22T16:14:53.469Z,14.39
2023-03-22T16:17:25.306Z,14.29
2023-03-22T16:19:52.725Z,14.33
2023-03-22T16:22:21.131Z,14.31
2023-03-22T16:24:50.493Z,14.33
2023-03-22T16:27:20.531Z,14.32
2023-03-22T16:29:48.172Z,14.28
2023-03-22T16:32:26.606Z,14.26
2023-03-22T16:34:53.431Z,14.28
2023-03-22T16:37:24.553Z,14.23
2023-03-22T16:39:52.305Z,14.20
2023-03-22T16:42:21.197Z,14.10
2023-03-22T16:44:54.449Z,14.07
2023-03-22T16:47:25.830Z,14.04
2023-03-22T16:49:53.857Z,14.07
2023-03-22T16:52:23.230Z,14.02
2023-03-22T16:54:52.391Z,14.02
2023-03-22T16:57:21.510Z,13.95
2023-03-22T16:59:48.445Z,13.92
2023-03-22T17:02:21.239Z,13.89
2023-03-22T17:04:48.134Z,13.84
2023-03-22T17:07:25.214Z,13.83
2023-03-22T17:09:55.233Z,13.83
2023-03-22T17:12:46.703Z,13.78
2023-03-22T17:15:40.086Z,13.76
2023-03-22T17:21:30.140Z,13.63
2023-03-22T17:25:41.208Z,13.54
2023-03-22T17:28:39.976Z,13.51
2023-03-22T17:32:18.213Z,13.46
2023-03-22T17:34:51.584Z,13.45
2023-03-22T17:44:10.759Z,13.35
2023-03-22T17:49:46.728Z,13.33
2023-03-22T17:52:15.827Z,13.30
2023-03-22T17:58:31.429Z,13.25
2023-03-22T18:01:12.036Z,13.27
2023-03-22T18:03:48.120Z,13.28
2023-03-22T18:06:18.319Z,13.26
2023-03-22T18:09:05.054Z,13.26
2023-03-22T18:19:04.566Z,13.16
2023-03-22T18:24:42.873Z,13.11
2023-03-22T18:48:51.976Z,12.99
2023-03-22T18:51:42.076Z,12.98
2023-03-22T18:54:18.256Z,13.00
2023-03-22T18:56:51.675Z,12.98
2023-03-22T18:59:31.990Z,12.93
2023-03-22T19:02:18.182Z,12.85
2023-03-22T19:04:48.891Z,12.92
2023-03-22T19:07:23.271Z,12.94
2023-03-22T19:10:05.440Z,12.95
2023-03-22T19:12:35.371Z,12.91
2023-03-22T19:15:20.809Z,12.91
2023-03-22T19:17:50.884Z,12.91
2023-03-22T19:20:17.980Z,12.90
2023-03-22T19:22:50.283Z,12.92
2023-03-22T19:25:17.944Z,12.92
2023-03-22T19:27:45.450Z,12.91
2023-03-22T19:30:13.934Z,12.94
2023-03-22T19:32:50.804Z,12.91
2023-03-22T19:35:33.710Z,12.91
2023-03-22T19:38:01.474Z,12.90
2023-03-22T19:42:58.075Z,12.87
2023-03-22T19:45:25.820Z,12.84
2023-03-22T19:48:03.808Z,12.83
2023-03-22T19:50:31.415Z,12.79
2023-03-22T19:53:09.300Z,12.79
2023-03-22T19:55:49.129Z,12.82
2023-03-22T19:58:25.491Z,12.80
2023-03-22T20:00:53.402Z,12.74
2023-03-22T20:09:33.681Z,12.72
2023-03-22T20:12:05.196Z,12.73
2023-03-22T20:14:34.491Z,12.74
2023-03-22T20:17:06.787Z,12.73
2023-03-22T20:19:36.791Z,12.70
2023-03-22T20:22:06.503Z,12.72
2023-03-22T20:24:33.360Z,12.69
2023-03-22T20:27:03.305Z,12.68
2023-03-22T20:29:30.111Z,12.67
2023-03-22T20:31:57.109Z,12.69
2023-03-22T20:34:25.109Z,12.68
2023-03-22T20:36:55.532Z,12.65
2023-03-22T20:39:22.906Z,12.66
2023-03-22T20:41:49.678Z,12.65
2023-03-22T20:44:16.591Z,12.66
2023-03-22T20:46:45.634Z,12.65
2023-03-22T20:49:15.097Z,12.65
2023-03-22T20:51:41.967Z,12.65
2023-03-22T20:54:09.446Z,12.63
2023-03-22T20:56:36.876Z,12.60
2023-03-22T20:59:05.245Z,12.61
2023-03-22T21:01:32.443Z,12.61
2023-03-22T21:04:00.329Z,12.58
2023-03-22T21:06:30.143Z,12.58
2023-03-22T21:09:06.409Z,12.55
2023-03-22T21:11:39.388Z,12.49
2023-03-22T21:14:06.737Z,12.51
2023-03-22T21:16:35.446Z,12.52
2023-03-22T21:19:02.739Z,12.45
2023-03-22T21:21:30.286Z,12.50
2023-03-22T21:23:59.156Z,12.51
2023-03-22T21:26:28.391Z,12.45
2023-03-22T21:28:56.089Z,12.42
2023-03-22T21:31:25.403Z,12.41
2023-03-22T21:33:56.095Z,12.41
2023-03-22T21:36:24.249Z,12.41
2023-03-22T21:38:56.560Z,12.40
2023-03-22T21:41:28.096Z,12.40
2023-03-22T21:43:55.597Z,12.39
2023-03-22T21:46:32.589Z,12.38
2023-03-22T21:49:02.467Z,12.38
2023-03-22T21:51:29.582Z,12.37
2023-03-22T21:53:57.349Z,12.38
2023-03-22T21:56:24.724Z,12.37
2023-03-22T21:58:55.195Z,12.36
2023-03-22T22:01:23.024Z,12.38
2023-03-22T22:03:57.163Z,12.34
2023-03-22T22:06:29.475Z,12.34
2023-03-22T22:09:00.795Z,12.32
2023-03-22T22:11:30.527Z,12.30
2023-03-22T22:14:00.241Z,12.33
2023-03-22T22:16:27.534Z,12.33
2023-03-22T22:18:55.993Z,12.34
2023-03-22T22:21:32.734Z,12.27
2023-03-22T22:24:00.661Z,12.28
2023-03-22T22:26:30.640Z,12.31
2023-03-22T22:28:58.330Z,12.26
2023-03-22T22:31:30.389Z,12.26
2023-03-22T22:34:01.705Z,12.25
2023-03-22T22:36:38.403Z,12.23
2023-03-22T22:39:13.967Z,12.21
2023-03-22T22:41:54.140Z,12.23
2023-03-22T22:44:26.195Z,12.17
2023-03-22T22:46:55.573Z,12.20
2023-03-22T22:49:22.815Z,12.18
2023-03-22T22:51:52.415Z,12.16
2023-03-22T22:54:22.151Z,12.18
2023-03-22T22:56:49.639Z,12.16
2023-03-22T22:59:16.782Z,12.16
2023-03-22T23:01:48.797Z,12.18
2023-03-22T23:04:28.309Z,12.15
2023-03-22T23:06:57.542Z,12.12
2023-03-22T23:09:33.294Z,12.12
2023-03-22T23:12:02.779Z,12.10
2023-03-22T23:14:30.845Z,12.10
2023-03-22T23:17:00.240Z,12.08
2023-03-22T23:19:29.724Z,12.06
2023-03-22T23:22:03.615Z,12.02
2023-03-22T23:24:34.704Z,11.94
2023-03-22T23:27:02.273Z,11.92
2023-03-22T23:29:29.515Z,11.92
2023-03-22T23:31:56.903Z,11.88
2023-03-22T23:34:24.238Z,11.85
2023-03-22T23:36:51.416Z,11.87
2023-03-22T23:39:20.796Z,11.83
2023-03-22T23:41:48.866Z,11.85
2023-03-22T23:44:17.145Z,11.84
2023-03-22T23:46:46.254Z,11.82
2023-03-22T23:49:13.565Z,11.84
2023-03-22T23:51:43.499Z,11.82
2023-03-22T23:54:12.746Z,11.80
2023-03-22T23:56:39.937Z,11.77
2023-03-22T23:59:12.363Z,11.72
